createdAt,value
2017-08-29T00:00:43.281Z,1012
2017-08-29T00:01:45.706Z,1012
2017-08-29T00:02:48.132Z,1012
2017-08-29T00:03:50.564Z,1012
2017-08-29T00:04:52.982Z,1012
2017-08-29T00:05:55.414Z,1012
2017-08-29T00:06:57.840Z,1011.9
2017-08-29T00:08:00.274Z,1011.9
2017-08-29T00:09:02.709Z,1011.9
2017-08-29T00:10:05.484Z,1011.9
2017-08-29T00:11:08.251Z,1011.9
2017-08-29T00:12:10.689Z,1011.9
2017-08-29T00:13:13.114Z,1011.9
2017-08-29T00:14:15.539Z,1011.9
2017-08-29T00:15:17.969Z,1011.9
2017-08-29T00:16:20.389Z,1012
2017-08-29T00:17:22.813Z,1012
2017-08-29T00:18:25.245Z,1011.9
2017-08-29T00:19:27.668Z,1011.9
2017-08-29T00:20:30.088Z,1011.9
2017-08-29T00:21:32.519Z,1011.9
2017-08-29T00:22:34.950Z,1011.9
2017-08-29T00:23:37.387Z,1012
2017-08-29T00:24:39.811Z,1011.9
2017-08-29T00:25:42.243Z,1011.8
2017-08-29T00:26:44.669Z,1011.9
2017-08-29T00:27:47.097Z,1011.8
2017-08-29T00:28:49.862Z,1011.9
2017-08-29T00:29:52.290Z,1011.9
2017-08-29T00:30:54.711Z,1011.9
2017-08-29T00:31:57.141Z,1011.9
2017-08-29T00:32:59.569Z,1011.9
2017-08-29T00:34:02.001Z,1011.9
2017-08-29T00:35:04.429Z,1011.9
2017-08-29T00:36:06.863Z,1011.9
2017-08-29T00:37:09.289Z,1011.9
2017-08-29T00:38:11.722Z,1011.9
2017-08-29T00:39:14.147Z,1011.9
2017-08-29T00:40:16.569Z,1011.9
2017-08-29T00:41:18.999Z,1011.9
2017-08-29T00:42:21.425Z,1011.9
2017-08-29T00:43:23.852Z,1011.8
2017-08-29T00:44:26.273Z,1011.9
2017-08-29T00:45:29.039Z,1011.8
2017-08-29T00:46:31.473Z,1011.8
2017-08-29T00:47:33.901Z,1011.8
2017-08-29T00:48:36.334Z,1011.8
2017-08-29T00:49:38.765Z,1011.8
2017-08-29T00:50:41.189Z,1011.8
2017-08-29T00:51:43.615Z,1011.8
2017-08-29T00:52:46.040Z,1011.8
2017-08-29T00:53:48.478Z,1011.8
2017-08-29T00:54:50.909Z,1011.9
2017-08-29T00:55:53.327Z,1011.8
2017-08-29T00:56:55.753Z,1011.9
2017-08-29T00:57:58.181Z,1011.8
2017-08-29T00:59:00.617Z,1011.8
2017-08-29T01:00:03.038Z,1011.9
2017-08-29T01:01:05.463Z,1011.8
2017-08-29T01:02:07.891Z,1011.8
2017-08-29T01:03:10.337Z,1011.8
2017-08-29T01:04:12.760Z,1011.8
2017-08-29T01:05:15.191Z,1011.8
2017-08-29T01:06:17.617Z,1011.7
2017-08-29T01:07:20.038Z,1011.7
2017-08-29T01:08:22.828Z,1011.8
2017-08-29T01:09:25.960Z,1011.7
2017-08-29T01:10:28.380Z,1011.7
2017-08-29T01:11:30.832Z,1011.7
2017-08-29T01:12:33.265Z,1011.7
2017-08-29T01:13:36.380Z,1011.7
2017-08-29T01:14:38.809Z,1011.7
2017-08-29T01:15:41.233Z,1011.7
2017-08-29T01:16:43.661Z,1011.7
2017-08-29T01:17:46.102Z,1011.7
2017-08-29T01:18:48.532Z,1011.7
2017-08-29T01:19:50.952Z,1011.6
2017-08-29T01:20:53.382Z,1011.6
2017-08-29T01:21:55.819Z,1011.6
2017-08-29T01:22:58.241Z,1011.6
2017-08-29T01:24:00.679Z,1011.6
2017-08-29T01:25:03.103Z,1011.6
2017-08-29T01:26:05.531Z,1011.6
2017-08-29T01:27:07.961Z,1011.6
2017-08-29T01:28:10.391Z,1011.6
2017-08-29T01:29:12.814Z,1011.6
2017-08-29T01:30:15.246Z,1011.6
2017-08-29T01:31:17.675Z,1011.6
2017-08-29T01:32:20.098Z,1011.5
2017-08-29T01:33:22.530Z,1011.5
2017-08-29T01:34:24.947Z,1011.6
2017-08-29T01:35:27.712Z,1011.6
2017-08-29T01:36:30.142Z,1011.6
2017-08-29T01:37:32.570Z,1011.6
2017-08-29T01:38:35.349Z,1011.6
2017-08-29T01:39:37.782Z,1011.6
2017-08-29T01:40:40.551Z,1011.6
2017-08-29T01:41:42.980Z,1011.5
2017-08-29T01:42:45.415Z,1011.5
2017-08-29T01:43:47.841Z,1011.6
2017-08-29T01:44:50.269Z,1011.6
2017-08-29T01:45:52.695Z,1011.5
2017-08-29T01:46:55.118Z,1011.5
2017-08-29T01:47:57.550Z,1011.5
2017-08-29T01:49:00.321Z,1011.5
2017-08-29T01:50:02.747Z,1011.5
2017-08-29T01:51:05.876Z,1011.5
2017-08-29T01:52:08.305Z,1011.5
2017-08-29T01:53:10.734Z,1011.5
2017-08-29T01:54:13.161Z,1011.5
2017-08-29T01:55:15.576Z,1011.5
2017-08-29T01:56:18.007Z,1011.5
2017-08-29T01:57:20.435Z,1011.5
2017-08-29T01:58:22.866Z,1011.5
2017-08-29T01:59:25.299Z,1011.5
2017-08-29T02:00:27.726Z,1011.5
2017-08-29T02:01:30.149Z,1011.5
2017-08-29T02:02:32.585Z,1011.5
2017-08-29T02:03:35.011Z,1011.5
2017-08-29T02:04:37.440Z,1011.5
2017-08-29T02:05:39.865Z,1011.4
2017-08-29T02:06:42.644Z,1011.4
2017-08-29T02:07:45.069Z,1011.4
2017-08-29T02:08:47.505Z,1011.4
2017-08-29T02:09:49.925Z,1011.4
2017-08-29T02:10:52.352Z,1011.4
2017-08-29T02:11:54.784Z,1011.3
2017-08-29T02:12:57.554Z,1011.4
2017-08-29T02:13:59.983Z,1011.3
2017-08-29T02:15:02.413Z,1011.4
2017-08-29T02:16:04.834Z,1011.4
2017-08-29T02:17:07.273Z,1011.3
2017-08-29T02:18:09.699Z,1011.3
2017-08-29T02:19:12.126Z,1011.4
2017-08-29T02:20:14.554Z,1011.4
2017-08-29T02:21:16.977Z,1011.4
2017-08-29T02:22:19.409Z,1011.4
2017-08-29T02:23:21.835Z,1011.4
2017-08-29T02:24:24.259Z,1011.4
2017-08-29T02:25:26.689Z,1011.4
2017-08-29T02:26:29.120Z,1011.4
2017-08-29T02:27:31.547Z,1011.3
2017-08-29T02:28:33.985Z,1011.4
2017-08-29T02:29:36.412Z,1011.4
2017-08-29T02:30:38.842Z,1011.3
2017-08-29T02:31:41.271Z,1011.4
2017-08-29T02:32:43.691Z,1011.4
2017-08-29T02:33:46.114Z,1011.4
2017-08-29T02:34:48.542Z,1011.4
2017-08-29T02:35:50.968Z,1011.3
2017-08-29T02:36:53.399Z,1011.3
2017-08-29T02:37:55.820Z,1011.4
2017-08-29T02:38:58.590Z,1011.3
2017-08-29T02:40:01.014Z,1011.3
2017-08-29T02:41:03.444Z,1011.3
2017-08-29T02:42:05.863Z,1011.3
2017-08-29T02:43:08.307Z,1011.3
2017-08-29T02:44:10.735Z,1011.3
2017-08-29T02:45:13.510Z,1011.3
2017-08-29T02:46:15.950Z,1011.3
2017-08-29T02:47:18.726Z,1011.3
2017-08-29T02:48:21.153Z,1011.2
2017-08-29T02:49:23.584Z,1011.2
2017-08-29T02:50:26.012Z,1011.2
2017-08-29T02:51:28.441Z,1011.2
2017-08-29T02:52:30.860Z,1011.2
2017-08-29T02:53:33.295Z,1011.2
2017-08-29T02:54:35.726Z,1011.2
2017-08-29T02:55:38.153Z,1011.1
2017-08-29T02:56:40.576Z,1011.1
2017-08-29T02:57:43.007Z,1011.1
2017-08-29T02:58:45.426Z,1011.1
2017-08-29T02:59:47.863Z,1011.1
2017-08-29T03:00:50.292Z,1011.1
2017-08-29T03:01:52.708Z,1011.1
2017-08-29T03:02:55.134Z,1011.1
2017-08-29T03:03:57.560Z,1011.1
2017-08-29T03:04:59.987Z,1011.1
2017-08-29T03:06:02.425Z,1011.1
2017-08-29T03:07:04.844Z,1011.1
2017-08-29T03:08:07.274Z,1011
2017-08-29T03:09:10.041Z,1011.1
2017-08-29T03:10:12.465Z,1011.1
2017-08-29T03:11:14.890Z,1011.1
2017-08-29T03:12:17.324Z,1011.1
2017-08-29T03:13:19.746Z,1011
2017-08-29T03:14:22.182Z,1011
2017-08-29T03:15:24.615Z,1011.1
2017-08-29T03:16:27.040Z,1011.1
2017-08-29T03:17:29.806Z,1011.1
2017-08-29T03:18:32.573Z,1011.1
2017-08-29T03:19:35.001Z,1011.1
2017-08-29T03:20:37.427Z,1011.1
2017-08-29T03:21:39.854Z,1011
2017-08-29T03:22:42.282Z,1011
2017-08-29T03:23:44.702Z,1011
2017-08-29T03:24:47.142Z,1011
2017-08-29T03:25:49.554Z,1011
2017-08-29T03:26:51.981Z,1011
2017-08-29T03:27:54.411Z,1011
2017-08-29T03:28:56.840Z,1011
2017-08-29T03:29:59.602Z,1011
2017-08-29T03:31:02.033Z,1010.9
2017-08-29T03:32:04.449Z,1011
2017-08-29T03:33:06.885Z,1011
2017-08-29T03:34:09.659Z,1010.9
2017-08-29T03:35:12.091Z,1010.9
2017-08-29T03:36:14.516Z,1010.9
2017-08-29T03:37:16.944Z,1010.9
2017-08-29T03:38:19.515Z,1010.9
2017-08-29T03:39:21.951Z,1010.9
2017-08-29T03:40:24.373Z,1010.9
2017-08-29T03:41:26.803Z,1010.9
2017-08-29T03:42:29.234Z,1010.9
2017-08-29T03:43:31.664Z,1010.8
2017-08-29T03:44:34.096Z,1010.9
2017-08-29T03:45:36.523Z,1010.8
2017-08-29T03:46:38.947Z,1010.8
2017-08-29T03:47:41.367Z,1010.8
2017-08-29T03:48:43.803Z,1010.8
2017-08-29T03:49:46.234Z,1010.8
2017-08-29T03:50:48.661Z,1010.8
2017-08-29T03:51:51.087Z,1010.8
2017-08-29T03:52:53.514Z,1010.8
2017-08-29T03:53:56.279Z,1010.9
2017-08-29T03:54:58.706Z,1010.9
2017-08-29T03:56:01.133Z,1010.9
2017-08-29T03:57:03.552Z,1010.9
2017-08-29T03:58:05.977Z,1010.9
2017-08-29T03:59:08.410Z,1010.9
2017-08-29T04:00:10.842Z,1010.9
2017-08-29T04:01:13.263Z,1010.9
2017-08-29T04:02:15.682Z,1010.9
2017-08-29T04:03:18.106Z,1010.9
2017-08-29T04:04:20.541Z,1010.9
2017-08-29T04:05:22.966Z,1010.9
2017-08-29T04:06:25.385Z,1010.9
2017-08-29T04:07:27.817Z,1010.9
2017-08-29T04:08:30.245Z,1010.9
2017-08-29T04:09:32.673Z,1010.8
2017-08-29T04:10:35.105Z,1010.9
2017-08-29T04:11:37.525Z,1010.9
2017-08-29T04:12:39.952Z,1010.9
2017-08-29T04:13:42.382Z,1010.9
2017-08-29T04:14:44.806Z,1010.9
2017-08-29T04:15:47.230Z,1010.9
2017-08-29T04:16:49.654Z,1010.9
2017-08-29T04:17:52.081Z,1010.9
2017-08-29T04:18:54.507Z,1010.8
2017-08-29T04:19:56.938Z,1010.8
2017-08-29T04:20:59.697Z,1010.8
2017-08-29T04:22:02.132Z,1010.8
2017-08-29T04:23:04.555Z,1010.8
2017-08-29T04:24:06.978Z,1010.8
2017-08-29T04:25:09.409Z,1010.8
2017-08-29T04:26:11.833Z,1010.8
2017-08-29T04:27:14.259Z,1010.8
2017-08-29T04:28:16.686Z,1010.8
2017-08-29T04:29:19.106Z,1010.7
2017-08-29T04:30:21.543Z,1010.7
2017-08-29T04:31:23.958Z,1010.8
2017-08-29T04:32:26.394Z,1010.7
2017-08-29T04:33:28.822Z,1010.7
2017-08-29T04:34:31.250Z,1010.7
2017-08-29T04:35:33.674Z,1010.7
2017-08-29T04:36:36.100Z,1010.7
2017-08-29T04:37:38.530Z,1010.7
2017-08-29T04:38:40.960Z,1010.7
2017-08-29T04:39:43.376Z,1010.6
2017-08-29T04:40:45.798Z,1010.6
2017-08-29T04:41:48.228Z,1010.6
2017-08-29T04:42:50.656Z,1010.7
2017-08-29T04:43:53.081Z,1010.6
2017-08-29T04:44:55.505Z,1010.6
2017-08-29T04:45:57.937Z,1010.6
2017-08-29T04:47:00.359Z,1010.6
2017-08-29T04:48:02.785Z,1010.6
2017-08-29T04:49:05.579Z,1010.6
2017-08-29T04:50:08.344Z,1010.6
2017-08-29T04:51:10.775Z,1010.6
2017-08-29T04:52:13.196Z,1010.6
2017-08-29T04:53:15.964Z,1010.6
2017-08-29T04:54:18.398Z,1010.6
2017-08-29T04:55:20.827Z,1010.6
2017-08-29T04:56:23.244Z,1010.6
2017-08-29T04:57:25.681Z,1010.6
2017-08-29T04:58:28.116Z,1010.5
2017-08-29T04:59:30.548Z,1010.5
2017-08-29T05:00:32.974Z,1010.5
2017-08-29T05:01:35.403Z,1010.5
2017-08-29T05:02:37.831Z,1010.5
2017-08-29T05:03:40.608Z,1010.5
2017-08-29T05:04:43.041Z,1010.5
2017-08-29T05:05:45.453Z,1010.5
2017-08-29T05:06:47.877Z,1010.5
2017-08-29T05:07:50.639Z,1010.5
2017-08-29T05:08:53.070Z,1010.5
2017-08-29T05:09:55.498Z,1010.5
2017-08-29T05:10:57.911Z,1010.5
2017-08-29T05:12:00.340Z,1010.5
2017-08-29T05:13:02.779Z,1010.5
2017-08-29T05:14:05.200Z,1010.4
2017-08-29T05:15:07.633Z,1010.4
2017-08-29T05:16:10.399Z,1010.4
2017-08-29T05:17:12.828Z,1010.4
2017-08-29T05:18:15.245Z,1010.3
2017-08-29T05:19:17.675Z,1010.4
2017-08-29T05:20:20.117Z,1010.4
2017-08-29T05:21:22.537Z,1010.4
2017-08-29T05:22:25.323Z,1010.4
2017-08-29T05:23:27.745Z,1010.4
2017-08-29T05:24:30.174Z,1010.4
2017-08-29T05:25:32.607Z,1010.4
2017-08-29T05:26:35.035Z,1010.4
2017-08-29T05:27:37.461Z,1010.4
2017-08-29T05:28:39.890Z,1010.4
2017-08-29T05:29:42.325Z,1010.4
2017-08-29T05:30:44.755Z,1010.4
2017-08-29T05:31:47.187Z,1010.4
2017-08-29T05:32:49.621Z,1010.3
2017-08-29T05:33:52.051Z,1010.3
2017-08-29T05:34:54.476Z,1010.4
2017-08-29T05:35:56.902Z,1010.4
2017-08-29T05:36:59.318Z,1010.4
2017-08-29T05:38:01.752Z,1010.4
2017-08-29T05:39:04.183Z,1010.3
2017-08-29T05:40:06.618Z,1010.4
2017-08-29T05:41:09.045Z,1010.4
2017-08-29T05:42:11.469Z,1010.3
2017-08-29T05:43:13.904Z,1010.3
2017-08-29T05:44:16.336Z,1010.3
2017-08-29T05:45:18.766Z,1010.3
2017-08-29T05:46:21.185Z,1010.3
2017-08-29T05:47:23.613Z,1010.3
2017-08-29T05:48:26.044Z,1010.3
2017-08-29T05:49:28.466Z,1010.3
2017-08-29T05:50:30.892Z,1010.3
2017-08-29T05:51:33.323Z,1010.3
2017-08-29T05:52:35.739Z,1010.3
2017-08-29T05:53:38.180Z,1010.3
2017-08-29T05:54:40.607Z,1010.3
2017-08-29T05:55:43.037Z,1010.3
2017-08-29T05:56:45.470Z,1010.3
2017-08-29T05:57:47.890Z,1010.2
2017-08-29T05:58:50.311Z,1010.2
2017-08-29T05:59:52.740Z,1010.2
2017-08-29T06:00:55.167Z,1010.2
2017-08-29T06:01:57.949Z,1010.2
2017-08-29T06:03:00.375Z,1010.1
2017-08-29T06:04:03.175Z,1010.1
2017-08-29T06:05:05.592Z,1010.1
2017-08-29T06:06:08.025Z,1010.1
2017-08-29T06:07:10.446Z,1010.1
2017-08-29T06:08:12.876Z,1010.1
2017-08-29T06:09:15.314Z,1010.1
2017-08-29T06:11:15.530Z,1010.1
2017-08-29T06:12:17.937Z,1010
2017-08-29T06:13:20.336Z,1010
2017-08-29T06:14:22.741Z,1010
2017-08-29T06:15:25.145Z,1010
2017-08-29T06:16:27.554Z,1010
2017-08-29T06:17:29.964Z,1009.9
2017-08-29T06:18:32.363Z,1009.9
2017-08-29T06:19:34.769Z,1009.9
2017-08-29T06:20:37.183Z,1009.9
2017-08-29T06:21:39.591Z,1009.9
2017-08-29T06:22:41.995Z,1009.9
2017-08-29T06:23:44.400Z,1009.9
2017-08-29T06:24:46.799Z,1009.8
2017-08-29T06:25:49.200Z,1009.8
2017-08-29T06:26:51.604Z,1009.8
2017-08-29T06:27:54.000Z,1009.8
2017-08-29T06:28:56.399Z,1009.8
2017-08-29T06:29:59.159Z,1009.8
2017-08-29T06:31:01.563Z,1009.8
2017-08-29T06:32:03.964Z,1009.7
2017-08-29T06:33:06.367Z,1009.7
2017-08-29T06:34:08.766Z,1009.7
2017-08-29T06:35:11.183Z,1009.6
2017-08-29T06:36:13.591Z,1009.6
2017-08-29T06:37:15.988Z,1009.6
2017-08-29T06:38:18.398Z,1009.6
2017-08-29T06:39:20.795Z,1009.7
2017-08-29T06:41:08.064Z,1009.5
2017-08-29T06:42:10.494Z,1009.5
2017-08-29T06:43:13.277Z,1009.6
2017-08-29T06:44:15.705Z,1009.5
2017-08-29T06:45:18.144Z,1009.6
2017-08-29T06:46:20.574Z,1009.5
2017-08-29T06:47:22.996Z,1009.5
2017-08-29T06:48:25.430Z,1009.5
2017-08-29T06:49:27.860Z,1009.5
2017-08-29T06:50:30.286Z,1009.5
2017-08-29T06:51:32.721Z,1009.5
2017-08-29T06:52:35.156Z,1009.5
2017-08-29T06:53:37.573Z,1009.5
2017-08-29T06:54:40.011Z,1009.5
2017-08-29T06:55:42.442Z,1009.5
2017-08-29T06:56:45.207Z,1009.4
2017-08-29T06:57:47.644Z,1009.4
2017-08-29T06:58:50.070Z,1009.4
2017-08-29T06:59:52.502Z,1009.4
2017-08-29T07:00:54.942Z,1009.4
2017-08-29T07:01:57.364Z,1009.4
2017-08-29T07:02:59.799Z,1009.4
2017-08-29T07:04:02.226Z,1009.4
2017-08-29T07:05:05.002Z,1009.4
2017-08-29T07:06:07.436Z,1009.4
2017-08-29T07:07:10.213Z,1009.3
2017-08-29T07:08:12.639Z,1009.4
2017-08-29T07:09:15.074Z,1009.4
2017-08-29T07:10:17.506Z,1009.4
2017-08-29T07:11:19.950Z,1009.4
2017-08-29T07:12:22.369Z,1009.4
2017-08-29T07:13:24.799Z,1009.4
2017-08-29T07:14:27.230Z,1009.4
2017-08-29T07:15:29.657Z,1009.4
2017-08-29T07:16:32.094Z,1009.4
2017-08-29T07:17:34.531Z,1009.3
2017-08-29T07:18:36.953Z,1009.3
2017-08-29T07:19:39.735Z,1009.4
2017-08-29T07:20:42.168Z,1009.4
2017-08-29T07:21:44.597Z,1009.4
2017-08-29T07:22:47.022Z,1009.4
2017-08-29T07:23:49.455Z,1009.4
2017-08-29T07:24:52.224Z,1009.3
2017-08-29T07:25:54.654Z,1009.3
2017-08-29T07:26:57.090Z,1009.3
2017-08-29T07:27:59.521Z,1009.4
2017-08-29T07:29:01.946Z,1009.3
2017-08-29T07:30:04.392Z,1009.3
2017-08-29T07:31:06.926Z,1009.4
2017-08-29T07:32:09.606Z,1009.4
2017-08-29T07:33:12.033Z,1009.3
2017-08-29T07:34:14.809Z,1009.4
2017-08-29T07:35:17.241Z,1009.3
2017-08-29T07:36:19.680Z,1009.4
2017-08-29T07:37:22.109Z,1009.4
2017-08-29T07:38:24.538Z,1009.4
2017-08-29T07:39:27.311Z,1009.4
2017-08-29T07:40:29.736Z,1009.4
2017-08-29T07:41:32.166Z,1009.4
2017-08-29T07:42:34.605Z,1009.4
2017-08-29T07:43:37.027Z,1009.4
2017-08-29T07:44:39.468Z,1009.3
2017-08-29T07:45:41.905Z,1009.4
2017-08-29T07:46:44.708Z,1009.3
2017-08-29T07:47:47.147Z,1009.4
2017-08-29T07:48:49.569Z,1009.3
2017-08-29T07:49:51.998Z,1009.3
2017-08-29T07:50:54.766Z,1009.3
2017-08-29T07:51:57.207Z,1009.3
2017-08-29T07:52:59.632Z,1009.3
2017-08-29T07:54:02.080Z,1009.3
2017-08-29T07:55:04.858Z,1009.4
2017-08-29T07:56:07.288Z,1009.4
2017-08-29T07:57:09.720Z,1009.4
2017-08-29T07:58:12.150Z,1009.4
2017-08-29T07:59:14.588Z,1009.3
2017-08-29T08:00:17.025Z,1009.3
2017-08-29T08:01:19.450Z,1009.3
2017-08-29T08:02:21.885Z,1009.3
2017-08-29T08:03:24.317Z,1009.3
2017-08-29T08:04:26.749Z,1009.3
2017-08-29T08:05:29.189Z,1009.3
2017-08-29T08:06:31.621Z,1009.3
2017-08-29T08:07:34.049Z,1009.3
2017-08-29T08:08:36.490Z,1009.3
2017-08-29T08:09:39.261Z,1009.3
2017-08-29T08:10:41.694Z,1009.3
2017-08-29T08:11:44.140Z,1009.2
2017-08-29T08:12:46.573Z,1009.2
2017-08-29T08:13:49.013Z,1009.2
2017-08-29T08:14:51.449Z,1009.2
2017-08-29T08:15:53.883Z,1009.1
2017-08-29T08:16:56.318Z,1009.1
2017-08-29T08:17:58.762Z,1009.1
2017-08-29T08:19:01.198Z,1009.1
2017-08-29T08:20:03.638Z,1009.1
2017-08-29T08:21:06.073Z,1009.1
2017-08-29T08:22:08.854Z,1009
2017-08-29T08:23:11.290Z,1009.1
2017-08-29T08:24:13.732Z,1009
2017-08-29T08:25:16.159Z,1009
2017-08-29T08:26:18.624Z,1009
2017-08-29T08:27:21.067Z,1009
2017-08-29T08:28:23.502Z,1009
2017-08-29T08:29:26.276Z,1009
2017-08-29T08:30:28.709Z,1009
2017-08-29T08:31:31.150Z,1009
2017-08-29T08:32:33.615Z,1009
2017-08-29T08:33:36.058Z,1009
2017-08-29T08:34:38.484Z,1009
2017-08-29T08:35:40.932Z,1009
2017-08-29T08:36:43.548Z,1009
2017-08-29T08:37:46.024Z,1009
2017-08-29T08:38:48.461Z,1009
2017-08-29T08:39:50.902Z,1009
2017-08-29T08:40:53.341Z,1009
2017-08-29T08:41:55.784Z,1009
2017-08-29T08:42:58.225Z,1009
2017-08-29T08:44:00.647Z,1008.9
2017-08-29T08:45:03.094Z,1008.9
2017-08-29T08:46:05.867Z,1008.9
2017-08-29T08:47:08.639Z,1008.8
2017-08-29T08:48:11.073Z,1008.8
2017-08-29T08:49:13.523Z,1008.8
2017-08-29T08:50:15.963Z,1008.8
2017-08-29T08:51:18.394Z,1008.8
2017-08-29T08:52:20.834Z,1008.8
2017-08-29T08:53:23.271Z,1008.8
2017-08-29T08:55:28.722Z,1008.8
2017-08-29T08:56:31.166Z,1008.8
2017-08-29T08:57:24.981Z,1008.8
2017-08-29T08:57:41.663Z,1008.8
2017-08-29T08:58:01.983Z,1008.8
2017-08-29T08:58:04.068Z,1008.8
2017-08-29T08:58:41.960Z,1008.8
2017-08-29T09:05:08.773Z,1008.8
2017-08-29T11:34:55.543Z,1007.7
2017-08-29T11:35:57.979Z,1007.7
2017-08-29T11:37:00.420Z,1007.6
2017-08-29T11:38:02.857Z,1007.7
2017-08-29T11:39:05.298Z,1007.7
2017-08-29T11:40:08.075Z,1007.6
2017-08-29T11:41:11.204Z,1007.6
2017-08-29T11:42:13.648Z,1007.7
2017-08-29T11:43:16.082Z,1007.6
2017-08-29T11:44:18.516Z,1007.6
2017-08-29T11:45:20.962Z,1007.6
2017-08-29T11:46:23.746Z,1007.5
2017-08-29T11:47:26.323Z,1007.6
2017-08-29T11:48:28.762Z,1007.5
2017-08-29T11:49:31.201Z,1007.5
2017-08-29T11:50:33.644Z,1007.5
2017-08-29T11:51:36.083Z,1007.5
2017-08-29T11:52:38.520Z,1007.5
2017-08-29T11:53:40.955Z,1007.5
2017-08-29T11:54:43.410Z,1007.5
2017-08-29T11:55:45.852Z,1007.4
2017-08-29T11:56:48.294Z,1007.5
2017-08-29T11:57:50.731Z,1007.5
2017-08-29T11:58:53.172Z,1007.5
2017-08-29T11:59:55.633Z,1007.4
2017-08-29T12:00:58.097Z,1007.4
2017-08-29T12:02:00.531Z,1007.4
2017-08-29T12:03:02.972Z,1007.3
2017-08-29T12:04:05.413Z,1007.4
2017-08-29T12:05:07.867Z,1007.4
2017-08-29T12:06:10.352Z,1007.4
2017-08-29T12:07:12.795Z,1007.3
2017-08-29T12:08:15.587Z,1007.4
2017-08-29T12:09:18.220Z,1007.4
2017-08-29T12:10:20.660Z,1007.4
2017-08-29T12:11:23.103Z,1007.4
2017-08-29T12:12:25.545Z,1007.3
2017-08-29T12:13:27.982Z,1007.3
2017-08-29T12:14:30.416Z,1007.3
2017-08-29T12:15:33.154Z,1007.3
2017-08-29T12:16:35.616Z,1007.3
2017-08-29T12:17:38.086Z,1007.3
2017-08-29T12:18:41.540Z,1007.3
2017-08-29T12:19:44.002Z,1007.3
2017-08-29T12:20:46.436Z,1007.3
2017-08-29T12:21:48.882Z,1007.3
2017-08-29T12:22:51.321Z,1007.2
2017-08-29T12:23:53.764Z,1007.2
2017-08-29T12:24:56.327Z,1007.2
2017-08-29T12:25:59.114Z,1007.2
2017-08-29T12:27:01.549Z,1007.2
2017-08-29T12:28:04.000Z,1007.2
2017-08-29T12:29:06.444Z,1007.2
2017-08-29T12:30:08.882Z,1007.1
2017-08-29T12:31:11.347Z,1007.1
2017-08-29T12:32:15.247Z,1007.1
2017-08-29T12:33:18.027Z,1007.1
2017-08-29T12:34:20.490Z,1007.1
2017-08-29T12:35:22.946Z,1007.1
2017-08-29T12:36:25.384Z,1007
2017-08-29T12:37:27.829Z,1007
2017-08-29T12:38:30.276Z,1007
2017-08-29T12:39:32.727Z,1007
2017-08-29T12:40:35.167Z,1007
2017-08-29T12:41:37.624Z,1007
2017-08-29T12:42:40.056Z,1007
2017-08-29T12:43:42.501Z,1007
2017-08-29T12:44:44.945Z,1007
2017-08-29T12:45:47.383Z,1006.9
2017-08-29T12:46:50.238Z,1007
2017-08-29T12:47:52.679Z,1007
2017-08-29T12:48:55.125Z,1007
2017-08-29T12:49:57.910Z,1007
2017-08-29T12:51:00.404Z,1006.9
2017-08-29T12:52:02.861Z,1007
2017-08-29T12:53:05.425Z,1007
2017-08-29T12:54:07.871Z,1006.9
2017-08-29T12:55:10.314Z,1006.9
2017-08-29T12:56:12.763Z,1006.8
2017-08-29T12:57:15.208Z,1006.8
2017-08-29T12:58:17.648Z,1006.8
2017-08-29T12:59:20.101Z,1006.8
2017-08-29T13:00:22.541Z,1006.8
2017-08-29T13:01:25.015Z,1006.8
2017-08-29T13:02:27.771Z,1006.8
2017-08-29T13:03:30.221Z,1006.8
2017-08-29T13:04:32.663Z,1006.7
2017-08-29T13:05:35.104Z,1006.8
2017-08-29T13:06:37.555Z,1006.7
2017-08-29T13:07:40.005Z,1006.7
2017-08-29T13:08:42.448Z,1006.7
2017-08-29T13:09:44.897Z,1006.6
2017-08-29T13:10:47.342Z,1006.7
2017-08-29T13:11:49.790Z,1006.6
2017-08-29T13:12:52.237Z,1006.7
2017-08-29T13:13:54.679Z,1006.6
2017-08-29T13:14:57.120Z,1006.5
2017-08-29T13:15:59.577Z,1006.6
2017-08-29T13:17:02.031Z,1006.5
2017-08-29T13:18:04.467Z,1006.4
2017-08-29T13:19:06.918Z,1006.5
2017-08-29T13:20:09.361Z,1006.5
2017-08-29T13:21:11.808Z,1006.4
2017-08-29T13:22:14.253Z,1006.4
2017-08-29T13:23:16.721Z,1006.5
2017-08-29T13:24:19.134Z,1006.4
2017-08-29T13:25:21.579Z,1006.5
2017-08-29T13:26:24.352Z,1006.4
2017-08-29T13:27:27.138Z,1006.4
2017-08-29T13:28:29.581Z,1006.4
2017-08-29T13:29:32.366Z,1006.4
2017-08-29T13:30:35.205Z,1006.4
2017-08-29T13:31:37.630Z,1006.5
2017-08-29T13:32:40.077Z,1006.4
2017-08-29T13:33:42.518Z,1006.3
2017-08-29T13:34:44.971Z,1006.4
2017-08-29T13:35:47.410Z,1006.3
2017-08-29T13:36:50.211Z,1006.3
2017-08-29T13:37:52.654Z,1006.3
2017-08-29T13:38:55.095Z,1006.3
2017-08-29T13:39:57.527Z,1006.3
2017-08-29T13:40:59.978Z,1006.3
2017-08-29T13:42:02.404Z,1006.3
2017-08-29T13:43:04.845Z,1006.3
2017-08-29T13:44:07.299Z,1006.3
2017-08-29T13:45:09.739Z,1006.3
2017-08-29T13:46:12.182Z,1006.3
2017-08-29T13:47:14.627Z,1006.3
2017-08-29T13:48:17.058Z,1006.3
2017-08-29T13:49:19.508Z,1006.3
2017-08-29T13:50:21.950Z,1006.2
2017-08-29T13:51:24.386Z,1006.2
2017-08-29T13:52:26.831Z,1006.2
2017-08-29T13:53:29.271Z,1006.2
2017-08-29T13:54:31.706Z,1006.2
2017-08-29T13:55:34.151Z,1006.2
2017-08-29T13:56:36.584Z,1006.2
2017-08-29T13:57:39.023Z,1006.2
2017-08-29T13:58:41.466Z,1006.2
2017-08-29T13:59:49.153Z,1006.2
2017-08-29T14:07:09.390Z,1006.1
2017-08-29T14:07:49.074Z,1006.1
2017-08-29T14:08:51.526Z,1006.1
2017-08-29T14:09:53.975Z,1006.2
2017-08-29T14:10:56.424Z,1006.1
2017-08-29T14:11:58.877Z,1006.2
2017-08-29T14:13:01.328Z,1006.2
2017-08-29T14:14:03.779Z,1006.2
2017-08-29T14:16:48.741Z,1006.2
2017-08-29T14:17:51.189Z,1006.2
2017-08-29T14:18:53.640Z,1006.1
2017-08-29T15:30:12.685Z,1005.8
2017-08-29T15:31:15.133Z,1005.8
2017-08-29T16:17:41.657Z,1005.5
2017-08-29T16:18:10.273Z,1005.5
2017-08-29T16:19:12.722Z,1005.5
2017-08-29T16:20:15.170Z,1005.5
2017-08-29T16:21:17.620Z,1005.5
2017-08-29T16:22:20.074Z,1005.5
2017-08-29T16:23:22.525Z,1005.5
2017-08-29T16:24:24.981Z,1005.5
2017-08-29T16:25:27.437Z,1005.5
2017-08-29T16:26:29.884Z,1005.5
2017-08-29T16:27:32.332Z,1005.5
2017-08-29T16:28:34.787Z,1005.5
2017-08-29T16:29:37.246Z,1005.5
2017-08-29T16:30:39.703Z,1005.5
2017-08-29T16:31:42.407Z,1005.5
2017-08-29T16:32:44.854Z,1005.6
2017-08-29T16:33:47.302Z,1005.5
2017-08-29T16:34:49.751Z,1005.6
2017-08-29T16:35:52.193Z,1005.6
2017-08-29T16:36:54.637Z,1005.6
2017-08-29T16:42:43.282Z,1005.7
2017-08-29T16:43:45.730Z,1005.6
2017-08-29T16:44:48.172Z,1005.6
2017-08-29T16:50:58.473Z,1005.5
2017-08-29T16:51:00.799Z,1005.6
2017-08-29T16:51:26.243Z,1005.5
2017-08-29T16:55:14.776Z,1005.6
2017-08-29T16:55:31.610Z,1005.6
2017-08-29T17:01:46.721Z,1005.5
2017-08-29T17:01:56.609Z,1005.5
2017-08-29T17:12:20.088Z,1005.6
2017-08-29T17:13:22.911Z,1005.6
2017-08-29T17:14:25.355Z,1005.6
2017-08-29T17:15:28.342Z,1005.6
2017-08-29T17:16:31.129Z,1005.6
2017-08-29T17:17:33.573Z,1005.7
2017-08-29T17:18:36.020Z,1005.6
2017-08-29T17:19:38.472Z,1005.7
2017-08-29T17:20:40.923Z,1005.6
2017-08-29T17:21:43.385Z,1005.6
2017-08-29T17:22:46.176Z,1005.7
2017-08-29T17:23:48.628Z,1005.7
2017-08-29T17:24:51.077Z,1005.7
2017-08-29T17:25:53.526Z,1005.7
2017-08-29T17:26:55.976Z,1005.7
2017-08-29T17:27:58.424Z,1005.7
2017-08-29T17:29:00.868Z,1005.7
2017-08-29T17:30:03.309Z,1005.6
2017-08-29T17:31:05.794Z,1005.7
2017-08-29T17:32:08.251Z,1005.7
2017-08-29T17:33:10.694Z,1005.6
2017-08-29T17:34:13.147Z,1005.7
2017-08-29T17:35:15.586Z,1005.7
2017-08-29T17:36:18.375Z,1005.6
2017-08-29T17:37:20.825Z,1005.7
2017-08-29T17:38:23.270Z,1005.7
2017-08-29T17:39:25.710Z,1005.7
2017-08-29T17:40:28.150Z,1005.7
2017-08-29T17:41:30.597Z,1005.6
2017-08-29T17:42:33.038Z,1005.7
2017-08-29T17:43:35.485Z,1005.7
2017-08-29T17:44:37.926Z,1005.7
2017-08-29T17:45:40.386Z,1005.7
2017-08-29T17:46:42.823Z,1005.7
2017-08-29T17:47:45.276Z,1005.7
2017-08-29T17:48:47.721Z,1005.6
2017-08-29T17:49:50.178Z,1005.7
2017-08-29T17:50:52.616Z,1005.6
2017-08-29T17:51:55.057Z,1005.7
2017-08-29T17:52:57.499Z,1005.7
2017-08-29T17:53:59.956Z,1005.7
2017-08-29T17:55:02.406Z,1005.7
2017-08-29T17:56:05.182Z,1005.7
2017-08-29T17:57:07.636Z,1005.6
2017-08-29T17:58:10.068Z,1005.6
2017-08-29T17:59:12.517Z,1005.6
2017-08-29T18:00:14.960Z,1005.6
2017-08-29T18:01:17.425Z,1005.6
2017-08-29T18:02:19.850Z,1005.6
2017-08-29T18:03:22.648Z,1005.6
2017-08-29T18:04:25.094Z,1005.6